sensor_id;sensor_type;location;lat;lon;timestamp;pressure;altitude;pressure_sealevel;temperature;humidity
10668;BME280;5382;42.136;24.796;2023-02-20T00:00:35;100011.69;;;15.01;74.49
10668;BME280;5382;42.136;24.796;2023-02-20T00:03:02;100037.38;;;15.02;74.76
10668;BME280;5382;42.136;24.796;2023-02-20T00:05:30;100025.28;;;14.98;74.78
10668;BME280;5382;42.136;24.796;2023-02-20T00:07:57;100019.53;;;14.93;74.94
10668;BME280;5382;42.136;24.796;2023-02-20T00:10:24;100033.69;;;14.94;74.88
10668;BME280;5382;42.136;24.796;2023-02-20T00:12:50;100034.28;;;14.97;74.16
10668;BME280;5382;42.136;24.796;2023-02-20T00:15:20;100031.88;;;15.04;73.48
10668;BME280;5382;42.136;24.796;2023-02-20T00:17:48;100038.34;;;15.01;73.50
10668;BME280;5382;42.136;24.796;2023-02-20T00:20:17;100038.22;;;15.03;73.36
10668;BME280;5382;42.136;24.796;2023-02-20T00:22:44;100047.31;;;15.00;73.41
10668;BME280;5382;42.136;24.796;2023-02-20T00:25:11;100029.75;;;14.88;73.60
10668;BME280;5382;42.136;24.796;2023-02-20T00:27:38;100044.78;;;14.99;73.59
10668;BME280;5382;42.136;24.796;2023-02-20T00:30:06;100042.63;;;14.83;74.27
10668;BME280;5382;42.136;24.796;2023-02-20T00:32:34;100060.31;;;14.94;74.23
10668;BME280;5382;42.136;24.796;2023-02-20T00:35:01;100046.84;;;14.86;74.87
10668;BME280;5382;42.136;24.796;2023-02-20T00:37:27;100052.56;;;14.81;75.79
10668;BME280;5382;42.136;24.796;2023-02-20T00:39:54;100056.03;;;14.72;76.46
10668;BME280;5382;42.136;24.796;2023-02-20T00:42:21;100043.84;;;14.69;77.12
10668;BME280;5382;42.136;24.796;2023-02-20T00:44:48;100044.50;;;14.61;77.52
10668;BME280;5382;42.136;24.796;2023-02-20T00:47:14;100044.06;;;14.56;77.59
10668;BME280;5382;42.136;24.796;2023-02-20T00:49:43;100043.69;;;14.50;77.85
10668;BME280;5382;42.136;24.796;2023-02-20T00:52:09;100033.44;;;14.45;78.10
10668;BME280;5382;42.136;24.796;2023-02-20T00:54:36;100048.00;;;14.41;78.58
10668;BME280;5382;42.136;24.796;2023-02-20T00:57:03;100058.31;;;14.34;79.54
10668;BME280;5382;42.136;24.796;2023-02-20T00:59:30;100050.47;;;14.33;79.45
10668;BME280;5382;42.136;24.796;2023-02-20T01:01:57;100058.56;;;14.31;79.64
10668;BME280;5382;42.136;24.796;2023-02-20T01:04:23;100039.22;;;14.29;79.65
10668;BME280;5382;42.136;24.796;2023-02-20T01:06:52;100034.06;;;14.28;80.05
10668;BME280;5382;42.136;24.796;2023-02-20T01:09:19;100036.72;;;14.28;79.78
10668;BME280;5382;42.136;24.796;2023-02-20T01:11:45;100036.00;;;14.26;79.60
10668;BME280;5382;42.136;24.796;2023-02-20T01:14:13;100047.09;;;14.31;79.60
10668;BME280;5382;42.136;24.796;2023-02-20T01:16:43;100051.31;;;14.33;78.82
10668;BME280;5382;42.136;24.796;2023-02-20T01:19:10;100048.91;;;14.30;79.14
10668;BME280;5382;42.136;24.796;2023-02-20T01:21:37;100042.81;;;14.18;79.83
10668;BME280;5382;42.136;24.796;2023-02-20T01:24:05;100049.31;;;14.26;79.71
10668;BME280;5382;42.136;24.796;2023-02-20T01:26:32;100055.72;;;14.23;80.11
10668;BME280;5382;42.136;24.796;2023-02-20T01:29:01;100052.34;;;14.21;80.00
10668;BME280;5382;42.136;24.796;2023-02-20T01:31:27;100047.28;;;14.18;80.22
10668;BME280;5382;42.136;24.796;2023-02-20T01:33:54;100030.72;;;14.14;80.52
10668;BME280;5382;42.136;24.796;2023-02-20T01:36:21;100034.25;;;14.15;80.40
10668;BME280;5382;42.136;24.796;2023-02-20T01:38:48;100041.38;;;14.14;80.59
10668;BME280;5382;42.136;24.796;2023-02-20T01:41:16;100043.34;;;14.12;81.08
10668;BME280;5382;42.136;24.796;2023-02-20T01:43:44;100038.13;;;14.11;81.06
10668;BME280;5382;42.136;24.796;2023-02-20T01:46:43;100047.22;;;14.08;81.33
10668;BME280;5382;42.136;24.796;2023-02-20T01:49:13;100061.72;;;14.04;82.02
10668;BME280;5382;42.136;24.796;2023-02-20T01:51:44;100062.41;;;13.96;82.80
10668;BME280;5382;42.136;24.796;2023-02-20T01:54:15;100053.81;;;13.93;83.42
10668;BME280;5382;42.136;24.796;2023-02-20T01:56:46;100060.25;;;13.90;83.57
10668;BME280;5382;42.136;24.796;2023-02-20T01:59:14;100040.06;;;13.88;84.24
10668;BME280;5382;42.136;24.796;2023-02-20T02:01:42;100088.56;;;13.80;84.72
10668;BME280;5382;42.136;24.796;2023-02-20T02:04:11;100092.47;;;13.76;85.04
10668;BME280;5382;42.136;24.796;2023-02-20T02:06:40;100069.84;;;13.70;85.97
10668;BME280;5382;42.136;24.796;2023-02-20T02:09:12;100064.22;;;13.64;86.48
10668;BME280;5382;42.136;24.796;2023-02-20T02:11:42;100085.03;;;13.59;87.19
10668;BME280;5382;42.136;24.796;2023-02-20T02:14:10;100092.63;;;13.52;88.23
10668;BME280;5382;42.136;24.796;2023-02-20T02:16:44;100096.53;;;13.48;88.96
10668;BME280;5382;42.136;24.796;2023-02-20T02:19:31;100096.16;;;13.41;89.84
10668;BME280;5382;42.136;24.796;2023-02-20T02:22:21;100108.63;;;13.41;90.41
10668;BME280;5382;42.136;24.796;2023-02-20T02:25:20;100104.50;;;13.37;90.66
10668;BME280;5382;42.136;24.796;2023-02-20T02:28:10;100087.59;;;13.38;90.76
10668;BME280;5382;42.136;24.796;2023-02-20T02:31:12;100103.56;;;13.38;91.39
10668;BME280;5382;42.136;24.796;2023-02-20T02:34:16;100124.09;;;13.36;91.93
10668;BME280;5382;42.136;24.796;2023-02-20T02:36:55;100113.97;;;13.29;92.80
10668;BME280;5382;42.136;24.796;2023-02-20T02:39:33;100116.72;;;13.28;93.32
10668;BME280;5382;42.136;24.796;2023-02-20T02:42:08;100142.47;;;13.27;93.78
10668;BME280;5382;42.136;24.796;2023-02-20T02:44:43;100123.94;;;13.26;94.38
10668;BME280;5382;42.136;24.796;2023-02-20T02:47:15;100125.88;;;13.24;94.90
10668;BME280;5382;42.136;24.796;2023-02-20T02:49:48;100146.53;;;13.20;95.10
10668;BME280;5382;42.136;24.796;2023-02-20T02:52:20;100129.50;;;13.23;95.46
10668;BME280;5382;42.136;24.796;2023-02-20T02:55:01;100128.66;;;13.22;95.66
10668;BME280;5382;42.136;24.796;2023-02-20T02:57:28;100125.78;;;13.14;95.53
10668;BME280;5382;42.136;24.796;2023-02-20T02:59:59;100155.97;;;13.24;96.22
10668;BME280;5382;42.136;24.796;2023-02-20T03:02:30;100153.53;;;13.21;96.27
10668;BME280;5382;42.136;24.796;2023-02-20T03:05:00;100172.38;;;13.18;97.13
10668;BME280;5382;42.136;24.796;2023-02-20T03:07:32;100165.38;;;13.17;97.98
10668;BME280;5382;42.136;24.796;2023-02-20T03:10:05;100153.44;;;13.12;99.21
10668;BME280;5382;42.136;24.796;2023-02-20T03:12:35;100169.22;;;13.02;99.85
10668;BME280;5382;42.136;24.796;2023-02-20T03:15:06;100168.88;;;13.06;100.00
10668;BME280;5382;42.136;24.796;2023-02-20T03:17:57;100172.72;;;13.02;100.00
10668;BME280;5382;42.136;24.796;2023-02-20T03:20:26;100175.25;;;12.93;100.00
10668;BME280;5382;42.136;24.796;2023-02-20T03:22:57;100185.88;;;12.93;100.00
10668;BME280;5382;42.136;24.796;2023-02-20T03:25:27;100163.88;;;12.91;100.00
10668;BME280;5382;42.136;24.796;2023-02-20T03:27:58;100172.94;;;12.88;100.00
10668;BME280;5382;42.136;24.796;2023-02-20T03:30:28;100169.34;;;12.89;100.00
10668;BME280;5382;42.136;24.796;2023-02-20T03:33:00;100151.59;;;12.90;100.00
10668;BME280;5382;42.136;24.796;2023-02-20T03:35:47;100164.25;;;12.86;100.00
10668;BME280;5382;42.136;24.796;2023-02-20T03:38:37;100159.16;;;12.83;100.00
10668;BME280;5382;42.136;24.796;2023-02-20T03:41:25;100169.69;;;12.84;100.00
10668;BME280;5382;42.136;24.796;2023-02-20T03:44:10;100185.63;;;12.84;100.00
10668;BME280;5382;42.136;24.796;2023-02-20T03:46:44;100188.66;;;12.91;100.00
10668;BME280;5382;42.136;24.796;2023-02-20T03:49:16;100172.84;;;12.90;100.00
10668;BME280;5382;42.136;24.796;2023-02-20T03:51:44;100184.19;;;12.92;100.00
10668;BME280;5382;42.136;24.796;2023-02-20T03:54:27;100189.50;;;12.92;100.00
10668;BME280;5382;42.136;24.796;2023-02-20T03:56:58;100193.84;;;12.93;100.00
10668;BME280;5382;42.136;24.796;2023-02-20T03:59:29;100193.84;;;12.93;100.00
10668;BME280;5382;42.136;24.796;2023-02-20T04:02:01;100177.75;;;12.72;100.00
10668;BME280;5382;42.136;24.796;2023-02-20T04:04:32;100212.91;;;12.98;100.00
10668;BME280;5382;42.136;24.796;2023-02-20T04:07:06;100199.78;;;12.96;100.00
10668;BME280;5382;42.136;24.796;2023-02-20T04:09:37;100212.91;;;12.98;100.00
10668;BME280;5382;42.136;24.796;2023-02-20T04:12:12;100213.06;;;12.96;100.00
10668;BME280;5382;42.136;24.796;2023-02-20T04:14:42;100226.69;;;12.92;100.00
10668;BME280;5382;42.136;24.796;2023-02-20T04:17:13;100219.66;;;12.91;100.00
10668;BME280;5382;42.136;24.796;2023-02-20T04:19:41;100231.25;;;12.90;100.00
10668;BME280;5382;42.136;24.796;2023-02-20T04:22:12;100228.84;;;12.86;100.00
10668;BME280;5382;42.136;24.796;2023-02-20T04:24:45;100203.22;;;12.74;100.00
10668;BME280;5382;42.136;24.796;2023-02-20T04:27:14;100199.00;;;12.83;100.00
10668;BME280;5382;42.136;24.796;2023-02-20T04:29:41;100187.91;;;12.78;100.00
10668;BME280;5382;42.136;24.796;2023-02-20T04:32:08;100217.47;;;12.73;100.00
10668;BME280;5382;42.136;24.796;2023-02-20T04:34:34;100198.38;;;12.68;100.00
10668;BME280;5382;42.136;24.796;2023-02-20T04:37:06;100201.16;;;12.66;100.00
10668;BME280;5382;42.136;24.796;2023-02-20T04:39:33;100192.34;;;12.66;100.00
10668;BME280;5382;42.136;24.796;2023-02-20T04:42:01;100092.69;;;11.91;100.00
10668;BME280;5382;42.136;24.796;2023-02-20T04:44:28;100191.91;;;12.48;100.00
10668;BME280;5382;42.136;24.796;2023-02-20T04:46:59;100207.25;;;12.44;100.00
10668;BME280;5382;42.136;24.796;2023-02-20T04:49:26;100215.53;;;12.40;100.00
10668;BME280;5382;42.136;24.796;2023-02-20T04:51:53;100213.44;;;12.32;100.00
10668;BME280;5382;42.136;24.796;2023-02-20T04:54:21;100204.94;;;12.16;100.00
10668;BME280;5382;42.136;24.796;2023-02-20T04:56:48;100201.94;;;12.20;100.00
10668;BME280;5382;42.136;24.796;2023-02-20T04:59:17;100226.88;;;12.18;100.00
10668;BME280;5382;42.136;24.796;2023-02-20T05:01:44;100196.41;;;11.99;100.00
10668;BME280;5382;42.136;24.796;2023-02-20T05:04:14;100201.50;;;12.27;100.00
10668;BME280;5382;42.136;24.796;2023-02-20T05:06:41;100236.81;;;12.27;100.00
10668;BME280;5382;42.136;24.796;2023-02-20T05:09:09;100203.16;;;12.28;98.79
10668;BME280;5382;42.136;24.796;2023-02-20T05:11:36;100223.00;;;12.35;97.72
10668;BME280;5382;42.136;24.796;2023-02-20T05:14:03;100230.81;;;12.36;96.98
10668;BME280;5382;42.136;24.796;2023-02-20T05:16:32;100236.13;;;12.36;96.58
10668;BME280;5382;42.136;24.796;2023-02-20T05:18:59;100208.19;;;12.19;96.30
10668;BME280;5382;42.136;24.796;2023-02-20T05:21:26;100250.97;;;12.39;96.01
10668;BME280;5382;42.136;24.796;2023-02-20T05:24:11;100245.66;;;12.39;96.08
10668;BME280;5382;42.136;24.796;2023-02-20T05:26:38;100249.75;;;12.32;96.24
10668;BME280;5382;42.136;24.796;2023-02-20T05:29:05;100267.59;;;12.30;96.89
10668;BME280;5382;42.136;24.796;2023-02-20T05:31:35;100272.38;;;12.25;97.47
10668;BME280;5382;42.136;24.796;2023-02-20T05:34:02;100281.28;;;12.23;97.67
10668;BME280;5382;42.136;24.796;2023-02-20T05:36:29;100270.38;;;12.15;98.19
10668;BME280;5382;42.136;24.796;2023-02-20T05:38:56;100298.72;;;12.15;98.63
10668;BME280;5382;42.136;24.796;2023-02-20T05:41:23;100257.94;;;11.92;98.99
10668;BME280;5382;42.136;24.796;2023-02-20T05:43:49;100300.63;;;12.13;99.44
10668;BME280;5382;42.136;24.796;2023-02-20T05:46:17;100316.38;;;12.16;97.95
10668;BME280;5382;42.136;24.796;2023-02-20T05:48:49;100326.09;;;12.15;97.37
10668;BME280;5382;42.136;24.796;2023-02-20T05:51:20;100307.34;;;12.18;96.80
10668;BME280;5382;42.136;24.796;2023-02-20T05:53:47;100332.66;;;12.22;95.44
10668;BME280;5382;42.136;24.796;2023-02-20T05:56:14;100316.66;;;12.24;95.30
10668;BME280;5382;42.136;24.796;2023-02-20T05:58:41;100346.34;;;12.29;94.72
10668;BME280;5382;42.136;24.796;2023-02-20T06:01:14;100349.19;;;12.26;94.21
10668;BME280;5382;42.136;24.796;2023-02-20T06:03:41;100347.41;;;12.27;94.17
10668;BME280;5382;42.136;24.796;2023-02-20T06:06:09;100354.03;;;12.21;94.38
10668;BME280;5382;42.136;24.796;2023-02-20T06:08:36;100344.78;;;12.27;94.27
10668;BME280;5382;42.136;24.796;2023-02-20T06:11:03;100347.41;;;12.27;94.82
10668;BME280;5382;42.136;24.796;2023-02-20T06:13:30;100367.06;;;12.24;94.70
10668;BME280;5382;42.136;24.796;2023-02-20T06:15:56;100366.00;;;12.27;93.77
10668;BME280;5382;42.136;24.796;2023-02-20T06:18:23;100366.84;;;12.27;93.39
10668;BME280;5382;42.136;24.796;2023-02-20T06:20:50;100374.56;;;12.30;92.45
10668;BME280;5382;42.136;24.796;2023-02-20T06:23:18;100373.50;;;12.33;92.68
10668;BME280;5382;42.136;24.796;2023-02-20T06:25:45;100389.19;;;12.36;91.24
10668;BME280;5382;42.136;24.796;2023-02-20T06:28:11;100391.00;;;12.35;90.95
10668;BME280;5382;42.136;24.796;2023-02-20T06:30:38;100384.53;;;12.39;90.79
10668;BME280;5382;42.136;24.796;2023-02-20T06:33:05;100406.38;;;12.43;89.85
10668;BME280;5382;42.136;24.796;2023-02-20T06:35:32;100392.78;;;12.48;89.62
10668;BME280;5382;42.136;24.796;2023-02-20T06:37:59;100401.50;;;12.50;88.61
10668;BME280;5382;42.136;24.796;2023-02-20T06:40:27;100399.13;;;12.58;86.28
10668;BME280;5382;42.136;24.796;2023-02-20T06:42:54;100412.19;;;12.61;83.55
10668;BME280;5382;42.136;24.796;2023-02-20T06:45:21;100423.31;;;12.66;81.12
10668;BME280;5382;42.136;24.796;2023-02-20T06:47:48;100387.63;;;12.70;81.55
10668;BME280;5382;42.136;24.796;2023-02-20T06:50:15;100375.72;;;12.76;80.48
10668;BME280;5382;42.136;24.796;2023-02-20T06:52:41;100403.50;;;12.83;79.94
10668;BME280;5382;42.136;24.796;2023-02-20T06:55:08;100370.78;;;12.82;79.69
10668;BME280;5382;42.136;24.796;2023-02-20T06:57:36;100347.63;;;12.84;80.21
10668;BME280;5382;42.136;24.796;2023-02-20T07:00:05;100369.72;;;12.85;79.79
10668;BME280;5382;42.136;24.796;2023-02-20T07:02:31;100360.44;;;12.91;80.30
10668;BME280;5382;42.136;24.796;2023-02-20T07:05:01;100341.41;;;12.97;79.93
10668;BME280;5382;42.136;24.796;2023-02-20T07:07:28;100363.91;;;13.04;79.85
10668;BME280;5382;42.136;24.796;2023-02-20T07:09:55;100341.56;;;13.06;79.30
10668;BME280;5382;42.136;24.796;2023-02-20T07:12:24;100343.28;;;13.19;78.51
10668;BME280;5382;42.136;24.796;2023-02-20T07:14:52;100346.81;;;13.19;77.82
10668;BME280;5382;42.136;24.796;2023-02-20T07:17:19;100338.28;;;13.27;76.70
10668;BME280;5382;42.136;24.796;2023-02-20T07:19:45;100379.25;;;13.36;75.01
10668;BME280;5382;42.136;24.796;2023-02-20T07:22:12;100351.94;;;13.45;74.65
10668;BME280;5382;42.136;24.796;2023-02-20T07:24:39;100376.75;;;13.57;73.18
10668;BME280;5382;42.136;24.796;2023-02-20T07:27:07;100359.72;;;13.59;71.18
10668;BME280;5382;42.136;24.796;2023-02-20T07:29:35;100428.03;;;13.59;68.67
10668;BME280;5382;42.136;24.796;2023-02-20T07:32:03;100372.78;;;13.62;68.63
10668;BME280;5382;42.136;24.796;2023-02-20T07:34:30;100369.41;;;13.71;68.18
10668;BME280;5382;42.136;24.796;2023-02-20T07:36:56;100389.47;;;13.75;67.16
10668;BME280;5382;42.136;24.796;2023-02-20T07:39:23;100405.56;;;13.74;65.85
10668;BME280;5382;42.136;24.796;2023-02-20T07:41:50;100375.94;;;13.67;65.76
10668;BME280;5382;42.136;24.796;2023-02-20T07:44:17;100369.53;;;13.70;65.15
10668;BME280;5382;42.136;24.796;2023-02-20T07:46:44;100377.41;;;13.83;63.39
10668;BME280;5382;42.136;24.796;2023-02-20T07:49:12;100405.94;;;13.81;62.49
10668;BME280;5382;42.136;24.796;2023-02-20T07:51:39;100362.28;;;13.83;62.44
10668;BME280;5382;42.136;24.796;2023-02-20T07:54:06;100346.22;;;13.96;60.54
10668;BME280;5382;42.136;24.796;2023-02-20T07:56:32;100347.91;;;14.08;59.99
10668;BME280;5382;42.136;24.796;2023-02-20T07:58:59;100386.00;;;14.09;58.94
10668;BME280;5382;42.136;24.796;2023-02-20T08:01:26;100349.72;;;14.19;58.42
10668;BME280;5382;42.136;24.796;2023-02-20T08:03:53;100352.75;;;14.26;55.75
10668;BME280;5382;42.136;24.796;2023-02-20T08:06:21;100359.63;;;14.17;55.19
10668;BME280;5382;42.136;24.796;2023-02-20T08:08:49;100327.59;;;14.07;54.71
10668;BME280;5382;42.136;24.796;2023-02-20T08:11:16;100383.47;;;14.18;54.29
10668;BME280;5382;42.136;24.796;2023-02-20T08:13:44;100385.16;;;14.08;53.94
10668;BME280;5382;42.136;24.796;2023-02-20T08:16:11;100391.34;;;14.20;54.22
10668;BME280;5382;42.136;24.796;2023-02-20T08:18:38;100329.13;;;14.32;53.41
10668;BME280;5382;42.136;24.796;2023-02-20T08:21:05;100356.00;;;14.40;52.44
10668;BME280;5382;42.136;24.796;2023-02-20T08:23:33;100371.72;;;14.44;51.17
10668;BME280;5382;42.136;24.796;2023-02-20T08:26:02;100347.38;;;14.48;51.28
10668;BME280;5382;42.136;24.796;2023-02-20T08:28:28;100342.06;;;14.59;48.82
10668;BME280;5382;42.136;24.796;2023-02-20T08:30:55;100360.91;;;14.68;47.51
10668;BME280;5382;42.136;24.796;2023-02-20T08:33:22;100374.34;;;14.66;47.17
10668;BME280;5382;42.136;24.796;2023-02-20T08:35:49;100347.31;;;14.82;46.83
10668;BME280;5382;42.136;24.796;2023-02-20T08:38:24;100379.78;;;14.76;45.24
10668;BME280;5382;42.136;24.796;2023-02-20T08:40:52;100369.63;;;14.58;45.33
10668;BME280;5382;42.136;24.796;2023-02-20T08:43:19;100351.25;;;14.67;45.18
10668;BME280;5382;42.136;24.796;2023-02-20T08:45:46;100373.97;;;14.71;44.30
10668;BME280;5382;42.136;24.796;2023-02-20T08:48:14;100352.41;;;14.74;44.06
10668;BME280;5382;42.136;24.796;2023-02-20T08:50:42;100311.06;;;14.91;43.52
10668;BME280;5382;42.136;24.796;2023-02-20T08:53:08;100355.53;;;14.90;43.16
10668;BME280;5382;42.136;24.796;2023-02-20T08:55:35;100361.16;;;15.08;42.47
10668;BME280;5382;42.136;24.796;2023-02-20T08:58:03;100376.69;;;15.24;42.06
10668;BME280;5382;42.136;24.796;2023-02-20T09:00:30;100353.44;;;15.26;41.32
10668;BME280;5382;42.136;24.796;2023-02-20T09:02:57;100358.50;;;15.29;40.62
10668;BME280;5382;42.136;24.796;2023-02-20T09:05:24;100370.38;;;15.46;39.81
10668;BME280;5382;42.136;24.796;2023-02-20T09:07:51;100380.41;;;15.54;39.73
10668;BME280;5382;42.136;24.796;2023-02-20T09:10:18;100393.97;;;15.62;38.97
10668;BME280;5382;42.136;24.796;2023-02-20T09:12:45;100380.63;;;15.62;37.86
10668;BME280;5382;42.136;24.796;2023-02-20T09:15:14;100394.09;;;15.81;37.47
10668;BME280;5382;42.136;24.796;2023-02-20T09:17:43;100407.97;;;15.75;35.99
10668;BME280;5382;42.136;24.796;2023-02-20T09:20:11;100403.13;;;15.69;36.04
10668;BME280;5382;42.136;24.796;2023-02-20T09:22:38;100386.34;;;15.78;36.19
10668;BME280;5382;42.136;24.796;2023-02-20T09:25:05;100391.59;;;15.68;33.69
10668;BME280;5382;42.136;24.796;2023-02-20T09:27:32;100409.81;;;15.63;32.93
10668;BME280;5382;42.136;24.796;2023-02-20T09:29:59;100395.38;;;15.66;32.86
10668;BME280;5382;42.136;24.796;2023-02-20T09:32:29;100390.84;;;15.78;32.93
10668;BME280;5382;42.136;24.796;2023-02-20T09:34:56;100368.91;;;15.74;31.19
10668;BME280;5382;42.136;24.796;2023-02-20T09:37:23;100413.56;;;15.72;33.09
10668;BME280;5382;42.136;24.796;2023-02-20T09:39:50;100363.44;;;15.76;32.87
10668;BME280;5382;42.136;24.796;2023-02-20T09:42:29;100363.06;;;15.80;34.21
10668;BME280;5382;42.136;24.796;2023-02-20T09:45:04;100352.63;;;15.98;33.76
10668;BME280;5382;42.136;24.796;2023-02-20T09:47:44;100333.03;;;16.19;32.95
10668;BME280;5382;42.136;24.796;2023-02-20T09:50:21;100339.22;;;16.29;31.31
10668;BME280;5382;42.136;24.796;2023-02-20T09:52:58;100366.47;;;16.23;29.79
10668;BME280;5382;42.136;24.796;2023-02-20T09:55:34;100371.75;;;16.13;29.98
10668;BME280;5382;42.136;24.796;2023-02-20T09:58:02;100345.03;;;16.03;29.35
10668;BME280;5382;42.136;24.796;2023-02-20T10:00:33;100367.09;;;16.05;29.04
10668;BME280;5382;42.136;24.796;2023-02-20T10:03:13;100315.94;;;16.00;29.41
10668;BME280;5382;42.136;24.796;2023-02-20T10:05:44;100317.13;;;16.17;30.68
10668;BME280;5382;42.136;24.796;2023-02-20T10:08:15;100333.75;;;16.30;27.88
10668;BME280;5382;42.136;24.796;2023-02-20T10:10:43;100324.06;;;16.29;27.30
10668;BME280;5382;42.136;24.796;2023-02-20T10:13:28;100323.56;;;16.14;27.00
10668;BME280;5382;42.136;24.796;2023-02-20T10:16:04;100341.88;;;16.19;27.14
10668;BME280;5382;42.136;24.796;2023-02-20T10:18:43;100436.47;;;16.26;27.38
10668;BME280;5382;42.136;24.796;2023-02-20T10:21:30;100301.56;;;16.32;27.70
10668;BME280;5382;42.136;24.796;2023-02-20T10:24:06;100378.34;;;16.40;26.77
10668;BME280;5382;42.136;24.796;2023-02-20T10:26:45;100350.94;;;16.47;27.94
10668;BME280;5382;42.136;24.796;2023-02-20T10:29:15;100370.19;;;16.51;26.70
10668;BME280;5382;42.136;24.796;2023-02-20T10:31:47;100337.31;;;16.60;26.17
10668;BME280;5382;42.136;24.796;2023-02-20T10:34:19;100356.84;;;16.51;25.96
10668;BME280;5382;42.136;24.796;2023-02-20T10:36:51;100358.81;;;16.58;27.03
10668;BME280;5382;42.136;24.796;2023-02-20T10:39:21;100352.75;;;16.47;26.22
10668;BME280;5382;42.136;24.796;2023-02-20T10:41:50;100339.66;;;16.44;26.50
10668;BME280;5382;42.136;24.796;2023-02-20T10:44:24;100333.78;;;16.60;26.87
10668;BME280;5382;42.136;24.796;2023-02-20T10:46:58;100352.28;;;16.82;26.07
10668;BME280;5382;42.136;24.796;2023-02-20T10:49:33;100333.56;;;16.82;25.83
10668;BME280;5382;42.136;24.796;2023-02-20T10:52:04;100380.16;;;16.89;25.54
10668;BME280;5382;42.136;24.796;2023-02-20T10:54:36;100346.53;;;16.96;26.38
10668;BME280;5382;42.136;24.796;2023-02-20T10:57:10;100341.72;;;17.00;25.61
10668;BME280;5382;42.136;24.796;2023-02-20T10:59:42;100323.84;;;17.30;25.94
10668;BME280;5382;42.136;24.796;2023-02-20T11:02:15;100330.19;;;17.76;25.28
10668;BME280;5382;42.136;24.796;2023-02-20T11:04:50;100342.31;;;17.90;25.42
10668;BME280;5382;42.136;24.796;2023-02-20T11:07:18;100331.53;;;18.55;24.32
10668;BME280;5382;42.136;24.796;2023-02-20T11:09:46;100319.66;;;18.57;24.69
10668;BME280;5382;42.136;24.796;2023-02-20T11:12:21;100339.31;;;18.93;23.78
10668;BME280;5382;42.136;24.796;2023-02-20T11:14:49;100268.69;;;19.29;23.44
10668;BME280;5382;42.136;24.796;2023-02-20T11:17:19;100303.28;;;19.92;24.05
10668;BME280;5382;42.136;24.796;2023-02-20T11:19:49;100325.03;;;20.07;22.69
10668;BME280;5382;42.136;24.796;2023-02-20T11:22:17;100324.56;;;20.20;22.73
10668;BME280;5382;42.136;24.796;2023-02-20T11:24:45;100319.44;;;20.43;22.26
10668;BME280;5382;42.136;24.796;2023-02-20T11:27:13;100279.66;;;20.55;22.21
10668;BME280;5382;42.136;24.796;2023-02-20T11:29:50;100279.19;;;21.08;21.49
10668;BME280;5382;42.136;24.796;2023-02-20T11:32:26;100287.91;;;21.27;21.43
10668;BME280;5382;42.136;24.796;2023-02-20T11:35:20;100313.00;;;20.95;21.16
10668;BME280;5382;42.136;24.796;2023-02-20T11:37:49;100282.56;;;21.10;21.53
10668;BME280;5382;42.136;24.796;2023-02-20T11:40:26;100296.50;;;21.47;21.25
10668;BME280;5382;42.136;24.796;2023-02-20T11:42:54;100315.16;;;21.56;20.72
10668;BME280;5382;42.136;24.796;2023-02-20T11:45:26;100333.69;;;21.51;20.49
10668;BME280;5382;42.136;24.796;2023-02-20T11:48:06;100319.91;;;21.30;20.49
10668;BME280;5382;42.136;24.796;2023-02-20T11:50:40;100325.94;;;21.24;20.48
10668;BME280;5382;42.136;24.796;2023-02-20T11:53:17;100305.41;;;21.31;20.81
10668;BME280;5382;42.136;24.796;2023-02-20T11:55:44;100307.06;;;22.20;20.84
10668;BME280;5382;42.136;24.796;2023-02-20T11:58:20;100297.94;;;21.82;20.71
10668;BME280;5382;42.136;24.796;2023-02-20T12:00:48;100334.03;;;22.04;20.68
10668;BME280;5382;42.136;24.796;2023-02-20T12:03:20;100314.22;;;21.89;20.86
10668;BME280;5382;42.136;24.796;2023-02-20T12:05:49;100319.97;;;21.86;20.94
10668;BME280;5382;42.136;24.796;2023-02-20T12:08:46;100321.00;;;21.68;20.89
10668;BME280;5382;42.136;24.796;2023-02-20T12:11:19;100297.97;;;22.21;20.78
10668;BME280;5382;42.136;24.796;2023-02-20T12:13:48;100328.09;;;22.25;20.45
10668;BME280;5382;42.136;24.796;2023-02-20T12:16:32;100341.03;;;21.82;20.44
10668;BME280;5382;42.136;24.796;2023-02-20T12:19:10;100305.50;;;21.87;20.49
10668;BME280;5382;42.136;24.796;2023-02-20T12:21:48;100315.22;;;22.35;20.34
10668;BME280;5382;42.136;24.796;2023-02-20T12:24:36;100319.69;;;22.82;20.39
10668;BME280;5382;42.136;24.796;2023-02-20T12:27:21;100300.69;;;22.99;19.95
10668;BME280;5382;42.136;24.796;2023-02-20T12:29:58;100304.22;;;23.37;19.64
10668;BME280;5382;42.136;24.796;2023-02-20T12:32:35;100325.84;;;22.91;20.11
10668;BME280;5382;42.136;24.796;2023-02-20T12:35:19;100299.09;;;22.58;20.49
10668;BME280;5382;42.136;24.796;2023-02-20T12:37:58;100279.34;;;23.57;20.40
10668;BME280;5382;42.136;24.796;2023-02-20T12:40:36;100299.00;;;23.36;19.98
10668;BME280;5382;42.136;24.796;2023-02-20T12:43:17;100263.47;;;24.28;19.46
10668;BME280;5382;42.136;24.796;2023-02-20T12:45:55;100295.94;;;24.28;19.33
10668;BME280;5382;42.136;24.796;2023-02-20T12:48:34;100304.72;;;23.70;19.29
10668;BME280;5382;42.136;24.796;2023-02-20T12:51:18;100290.66;;;23.07;19.37
10668;BME280;5382;42.136;24.796;2023-02-20T12:54:06;100300.09;;;23.79;19.34
10668;BME280;5382;42.136;24.796;2023-02-20T12:56:48;100279.31;;;23.80;19.70
10668;BME280;5382;42.136;24.796;2023-02-20T12:59:25;100282.06;;;24.52;19.00
10668;BME280;5382;42.136;24.796;2023-02-20T13:01:54;100275.00;;;23.70;19.40
10668;BME280;5382;42.136;24.796;2023-02-20T13:04:26;100289.38;;;23.86;19.33
10668;BME280;5382;42.136;24.796;2023-02-20T13:07:03;100282.28;;;24.72;19.15